Time;durP1;ratioP1;P1;durP2;ratioP2;P2;SDS_P1;SDS_P2;PMS_P1;PMS_P2;Temp;Humidity;BMP_temperature;BMP_pressure;BME280_temperature;BME280_humidity;BME280_pressure;Samples;Min_cycle;Max_cycle;Signal;HPM_P1;HPM_P2
2021/06/13 00:02:48;;;;;;;15.0;9.4;;;;;;;16.0;48.3;102420;;;;
2021/06/13 00:06:52;;;;;;;15.0;9.4;;;;;;;15.9;48.6;102420;;;;
2021/06/13 00:08:48;;;;;;;15.0;9.4;;;;;;;16.0;48.7;102420;;;;
2021/06/13 00:10:48;;;;;;;13.7;9.5;;;;;;;16.1;48.3;102420;;;;
2021/06/13 00:12:48;;;;;;;13.7;9.5;;;;;;;16.0;48.6;102420;;;;
2021/06/13 00:14:48;;;;;;;13.7;9.5;;;;;;;15.9;50.3;102420;;;;
2021/06/13 00:16:48;;;;;;;13.7;9.5;;;;;;;15.8;49.9;102420;;;;
2021/06/13 00:18:48;;;;;;;13.7;9.5;;;;;;;15.5;51.3;102420;;;;
2021/06/13 00:20:48;;;;;;;13.7;9.5;;;;;;;15.6;50.5;102420;;;;
2021/06/13 00:24:48;;;;;;;13.7;9.5;;;;;;;15.7;49.6;102420;;;;
2021/06/13 00:26:48;;;;;;;13.7;9.5;;;;;;;15.6;49.5;102430;;;;
2021/06/13 00:28:48;;;;;;;13.7;9.5;;;;;;;15.7;49.2;102430;;;;
2021/06/13 00:30:48;;;;;;;16.0;10.4;;;;;;;15.6;49.8;102430;;;;
2021/06/13 00:32:48;;;;;;;16.0;10.4;;;;;;;15.5;50.2;102430;;;;
2021/06/13 00:34:48;;;;;;;16.0;10.4;;;;;;;15.4;50.6;102430;;;;
2021/06/13 00:36:48;;;;;;;16.0;10.4;;;;;;;15.5;50.3;102430;;;;
2021/06/13 00:42:48;;;;;;;16.0;10.4;;;;;;;15.4;50.3;102430;;;;
2021/06/13 00:48:48;;;;;;;16.0;10.4;;;;;;;15.3;51.7;102430;;;;
2021/06/13 00:50:48;;;;;;;14.7;10.8;;;;;;;15.4;50.0;102430;;;;
2021/06/13 00:52:49;;;;;;;14.7;10.8;;;;;;;15.3;51.0;102430;;;;
2021/06/13 00:54:48;;;;;;;14.7;10.8;;;;;;;15.2;51.1;102430;;;;
2021/06/13 00:58:48;;;;;;;14.7;10.8;;;;;;;15.1;51.6;102440;;;;
2021/06/13 01:00:48;;;;;;;14.7;10.8;;;;;;;15.2;51.7;102440;;;;
2021/06/13 01:04:48;;;;;;;14.7;10.8;;;;;;;15.1;52.6;102440;;;;
2021/06/13 01:06:48;;;;;;;14.7;10.8;;;;;;;15.0;52.5;102440;;;;
2021/06/13 01:08:48;;;;;;;14.7;10.8;;;;;;;14.9;52.1;102450;;;;
2021/06/13 01:10:48;;;;;;;16.1;10.6;;;;;;;15.1;51.1;102440;;;;
2021/06/13 01:14:48;;;;;;;16.1;10.6;;;;;;;15.0;50.6;102440;;;;
2021/06/13 01:20:48;;;;;;;16.1;10.6;;;;;;;14.9;51.5;102450;;;;
2021/06/13 01:24:48;;;;;;;16.1;10.6;;;;;;;14.8;53.6;102440;;;;
2021/06/13 01:30:48;;;;;;;15.5;11.7;;;;;;;14.9;51.8;102440;;;;
2021/06/13 01:32:48;;;;;;;15.5;11.7;;;;;;;14.8;54.2;102440;;;;
2021/06/13 01:34:48;;;;;;;15.5;11.7;;;;;;;14.9;52.5;102440;;;;
2021/06/13 01:36:48;;;;;;;15.5;11.7;;;;;;;14.7;52.0;102440;;;;
2021/06/13 01:38:48;;;;;;;15.5;11.7;;;;;;;14.8;51.3;102440;;;;
2021/06/13 01:40:48;;;;;;;15.5;11.7;;;;;;;14.6;53.0;102440;;;;
2021/06/13 01:42:48;;;;;;;15.5;11.7;;;;;;;14.7;51.8;102430;;;;
2021/06/13 01:46:48;;;;;;;15.5;11.7;;;;;;;14.6;53.8;102440;;;;
2021/06/13 01:52:48;;;;;;;17.1;11.3;;;;;;;14.7;52.6;102440;;;;
2021/06/13 01:56:48;;;;;;;17.1;11.3;;;;;;;14.5;54.3;102440;;;;
2021/06/13 01:58:48;;;;;;;17.1;11.3;;;;;;;14.6;52.0;102440;;;;
2021/06/13 02:04:48;;;;;;;17.1;11.3;;;;;;;14.3;53.4;102430;;;;
2021/06/13 02:06:48;;;;;;;17.1;11.3;;;;;;;14.4;52.3;102430;;;;
2021/06/13 02:08:48;;;;;;;17.1;11.3;;;;;;;14.5;51.4;102430;;;;
2021/06/13 02:18:48;;;;;;;15.1;11.8;;;;;;;14.4;51.7;102430;;;;
2021/06/13 02:20:48;;;;;;;15.1;11.8;;;;;;;14.3;52.6;102440;;;;
2021/06/13 02:22:48;;;;;;;15.1;11.8;;;;;;;14.4;52.4;102440;;;;
2021/06/13 02:24:48;;;;;;;15.1;11.8;;;;;;;14.3;52.5;102440;;;;
2021/06/13 02:26:48;;;;;;;15.1;11.8;;;;;;;14.2;53.8;102440;;;;
2021/06/13 02:28:48;;;;;;;15.1;11.8;;;;;;;14.3;53.9;102440;;;;
2021/06/13 02:34:48;;;;;;;15.4;11.3;;;;;;;14.1;53.3;102440;;;;
2021/06/13 02:36:48;;;;;;;15.4;11.3;;;;;;;14.2;54.7;102440;;;;
2021/06/13 02:40:49;;;;;;;15.4;11.3;;;;;;;14.1;54.1;102440;;;;
2021/06/13 02:44:48;;;;;;;15.4;11.3;;;;;;;13.8;57.0;102440;;;;
2021/06/13 02:46:48;;;;;;;15.4;11.3;;;;;;;14.0;54.0;102440;;;;
2021/06/13 02:48:48;;;;;;;15.4;11.3;;;;;;;13.9;54.3;102440;;;;
2021/06/13 02:50:48;;;;;;;17.6;12.3;;;;;;;14.1;53.9;102440;;;;
2021/06/13 02:52:48;;;;;;;17.6;12.3;;;;;;;14.0;53.1;102450;;;;
2021/06/13 02:56:48;;;;;;;17.6;12.3;;;;;;;14.1;53.9;102450;;;;
2021/06/13 03:00:48;;;;;;;17.6;12.3;;;;;;;13.9;54.1;102450;;;;
2021/06/13 03:08:48;;;;;;;17.6;12.3;;;;;;;13.8;53.5;102450;;;;
2021/06/13 03:10:48;;;;;;;16.9;11.9;;;;;;;14.0;54.5;102450;;;;
2021/06/13 03:12:48;;;;;;;16.9;11.9;;;;;;;13.8;53.7;102450;;;;
2021/06/13 03:14:48;;;;;;;16.9;11.9;;;;;;;13.9;54.5;102450;;;;
2021/06/13 03:18:48;;;;;;;16.9;11.9;;;;;;;13.8;53.8;102440;;;;
2021/06/13 03:20:48;;;;;;;16.9;11.9;;;;;;;13.9;53.9;102430;;;;
2021/06/13 03:22:48;;;;;;;16.9;11.9;;;;;;;13.8;54.5;102430;;;;
2021/06/13 03:26:48;;;;;;;16.9;11.9;;;;;;;13.7;55.2;102440;;;;
2021/06/13 03:30:48;;;;;;;19.4;12.8;;;;;;;13.9;53.7;102440;;;;
2021/06/13 03:32:48;;;;;;;19.4;12.8;;;;;;;13.7;56.1;102450;;;;
2021/06/13 03:36:48;;;;;;;19.4;12.8;;;;;;;13.8;54.6;102450;;;;
2021/06/13 03:38:48;;;;;;;19.4;12.8;;;;;;;13.7;55.3;102450;;;;
2021/06/13 03:42:48;;;;;;;19.4;12.8;;;;;;;13.4;56.1;102460;;;;
2021/06/13 03:44:48;;;;;;;19.4;12.8;;;;;;;13.5;57.7;102470;;;;
2021/06/13 03:48:48;;;;;;;19.4;12.8;;;;;;;13.6;55.5;102470;;;;
2021/06/13 03:50:48;;;;;;;15.8;12.0;;;;;;;13.7;54.9;102470;;;;
2021/06/13 03:54:48;;;;;;;15.8;12.0;;;;;;;13.6;55.9;102470;;;;
2021/06/13 03:58:48;;;;;;;15.8;12.0;;;;;;;13.5;57.7;102480;;;;
2021/06/13 04:00:48;;;;;;;15.8;12.0;;;;;;;13.6;56.9;102480;;;;
2021/06/13 04:12:48;;;;;;;16.4;13.2;;;;;;;13.7;54.7;102490;;;;
2021/06/13 04:16:48;;;;;;;16.4;13.2;;;;;;;13.5;56.0;102500;;;;
2021/06/13 04:18:48;;;;;;;16.4;13.2;;;;;;;13.6;54.6;102510;;;;
2021/06/13 04:20:48;;;;;;;16.4;13.2;;;;;;;13.7;54.9;102510;;;;
2021/06/13 04:24:48;;;;;;;16.4;13.2;;;;;;;13.6;55.1;102500;;;;
2021/06/13 04:26:48;;;;;;;16.4;13.2;;;;;;;13.7;55.1;102500;;;;
2021/06/13 04:28:48;;;;;;;16.4;13.2;;;;;;;13.8;54.7;102500;;;;
2021/06/13 04:32:49;;;;;;;17.2;13.0;;;;;;;13.7;57.1;102510;;;;
2021/06/13 04:38:48;;;;;;;17.2;13.0;;;;;;;13.8;55.6;102510;;;;
2021/06/13 04:44:48;;;;;;;17.2;13.0;;;;;;;13.7;56.0;102520;;;;
2021/06/13 04:46:48;;;;;;;17.2;13.0;;;;;;;13.8;56.7;102520;;;;
2021/06/13 04:50:48;;;;;;;20.3;13.7;;;;;;;13.9;55.8;102520;;;;
2021/06/13 04:58:48;;;;;;;20.3;13.7;;;;;;;14.0;56.2;102530;;;;
2021/06/13 05:00:48;;;;;;;20.3;13.7;;;;;;;14.1;55.4;102530;;;;
2021/06/13 05:04:48;;;;;;;20.3;13.7;;;;;;;14.2;57.3;102530;;;;
2021/06/13 05:10:48;;;;;;;21.5;12.6;;;;;;;14.3;54.9;102530;;;;
2021/06/13 05:14:48;;;;;;;21.5;12.6;;;;;;;14.4;56.4;102530;;;;
2021/06/13 05:18:48;;;;;;;21.5;12.6;;;;;;;14.5;55.4;102530;;;;
2021/06/13 05:22:48;;;;;;;21.5;12.6;;;;;;;14.6;56.8;102540;;;;
2021/06/13 05:24:48;;;;;;;21.5;12.6;;;;;;;14.5;57.5;102540;;;;
2021/06/13 05:26:48;;;;;;;21.5;12.6;;;;;;;14.6;55.7;102540;;;;
2021/06/13 05:30:48;;;;;;;17.1;10.7;;;;;;;14.7;57.7;102550;;;;
2021/06/13 05:34:48;;;;;;;17.1;10.7;;;;;;;14.8;55.1;102550;;;;
2021/06/13 05:38:48;;;;;;;17.1;10.7;;;;;;;15.0;57.9;102560;;;;
2021/06/13 05:44:48;;;;;;;17.1;10.7;;;;;;;15.1;56.2;102560;;;;
2021/06/13 05:48:48;;;;;;;17.1;10.7;;;;;;;15.2;56.3;102560;;;;
2021/06/13 05:52:48;;;;;;;15.2;9.8;;;;;;;15.3;56.4;102560;;;;
2021/06/13 05:54:48;;;;;;;15.2;9.8;;;;;;;15.4;57.1;102560;;;;
2021/06/13 05:58:48;;;;;;;15.2;9.8;;;;;;;15.6;55.6;102560;;;;
2021/06/13 06:00:48;;;;;;;15.2;9.8;;;;;;;15.7;54.1;102570;;;;
2021/06/13 06:02:48;;;;;;;15.2;9.8;;;;;;;15.8;54.4;102570;;;;
2021/06/13 06:04:48;;;;;;;15.2;9.8;;;;;;;15.9;53.7;102570;;;;
2021/06/13 06:10:49;;;;;;;14.4;9.1;;;;;;;16.1;54.2;102580;;;;
2021/06/13 06:24:48;;;;;;;14.4;9.1;;;;;;;16.0;54.0;102590;;;;
2021/06/13 06:26:48;;;;;;;14.4;9.1;;;;;;;16.1;54.6;102590;;;;
2021/06/13 06:28:48;;;;;;;14.4;9.1;;;;;;;16.2;53.9;102590;;;;
2021/06/13 06:30:48;;;;;;;15.5;8.8;;;;;;;16.3;53.8;102590;;;;
2021/06/13 06:32:48;;;;;;;15.5;8.8;;;;;;;16.4;53.2;102600;;;;
2021/06/13 06:36:48;;;;;;;15.5;8.8;;;;;;;16.3;53.1;102600;;;;
2021/06/13 06:40:48;;;;;;;15.5;8.8;;;;;;;16.4;53.8;102600;;;;
2021/06/13 06:42:48;;;;;;;15.5;8.8;;;;;;;16.5;53.4;102610;;;;
2021/06/13 06:48:48;;;;;;;15.5;8.8;;;;;;;16.7;53.6;102610;;;;
2021/06/13 06:50:48;;;;;;;14.3;8.9;;;;;;;16.6;54.2;102610;;;;
2021/06/13 06:54:48;;;;;;;14.3;8.9;;;;;;;16.7;53.0;102610;;;;
2021/06/13 06:58:48;;;;;;;14.3;8.9;;;;;;;16.8;52.9;102610;;;;
2021/06/13 07:00:48;;;;;;;14.3;8.9;;;;;;;16.6;52.2;102620;;;;
2021/06/13 07:02:48;;;;;;;14.3;8.9;;;;;;;16.8;52.5;102620;;;;
2021/06/13 07:06:48;;;;;;;14.3;8.9;;;;;;;16.9;51.4;102620;;;;
2021/06/13 07:08:48;;;;;;;14.3;8.9;;;;;;;17.1;51.7;102620;;;;
2021/06/13 07:10:48;;;;;;;13.6;7.7;;;;;;;17.3;51.1;102620;;;;
2021/06/13 07:12:48;;;;;;;13.6;7.7;;;;;;;17.1;51.6;102620;;;;
2021/06/13 07:14:48;;;;;;;13.6;7.7;;;;;;;17.3;51.2;102620;;;;
2021/06/13 07:16:48;;;;;;;13.6;7.7;;;;;;;17.4;50.5;102620;;;;
2021/06/13 07:18:49;;;;;;;13.6;7.7;;;;;;;17.6;50.3;102620;;;;
2021/06/13 07:20:48;;;;;;;13.6;7.7;;;;;;;17.7;50.7;102620;;;;
2021/06/13 07:22:48;;;;;;;13.6;7.7;;;;;;;17.6;50.8;102630;;;;
2021/06/13 07:24:48;;;;;;;13.6;7.7;;;;;;;17.8;50.9;102620;;;;
2021/06/13 07:26:48;;;;;;;13.6;7.7;;;;;;;18.0;49.6;102630;;;;
2021/06/13 07:28:48;;;;;;;13.6;7.7;;;;;;;18.1;49.5;102630;;;;
2021/06/13 07:30:48;;;;;;;13.7;7.2;;;;;;;18.3;49.6;102630;;;;
2021/06/13 07:32:48;;;;;;;13.7;7.2;;;;;;;18.4;48.7;102630;;;;
2021/06/13 07:34:48;;;;;;;13.7;7.2;;;;;;;18.3;48.8;102640;;;;
2021/06/13 07:36:48;;;;;;;13.7;7.2;;;;;;;18.5;48.9;102640;;;;
2021/06/13 07:38:48;;;;;;;13.7;7.2;;;;;;;18.6;48.8;102640;;;;
2021/06/13 07:40:52;;;;;;;13.7;7.2;;;;;;;18.7;47.9;102640;;;;
2021/06/13 07:42:48;;;;;;;13.7;7.2;;;;;;;18.8;48.1;102640;;;;
2021/06/13 07:46:48;;;;;;;13.7;7.2;;;;;;;19.0;47.4;102640;;;;
2021/06/13 07:48:48;;;;;;;13.7;7.2;;;;;;;18.9;47.7;102640;;;;
2021/06/13 07:50:48;;;;;;;9.1;6.1;;;;;;;19.0;47.5;102640;;;;
2021/06/13 07:54:48;;;;;;;9.1;6.1;;;;;;;19.1;47.1;102630;;;;
2021/06/13 07:56:48;;;;;;;9.1;6.1;;;;;;;19.0;46.5;102630;;;;
2021/06/13 07:58:48;;;;;;;9.1;6.1;;;;;;;19.1;47.3;102640;;;;
2021/06/13 08:00:50;;;;;;;9.1;6.1;;;;;;;19.3;46.4;102640;;;;
2021/06/13 08:06:48;;;;;;;9.1;6.1;;;;;;;19.5;46.4;102640;;;;
2021/06/13 08:10:48;;;;;;;11.9;7.0;;;;;;;19.6;45.3;102640;;;;
2021/06/13 08:12:48;;;;;;;11.9;7.0;;;;;;;19.7;45.0;102650;;;;
2021/06/13 08:14:48;;;;;;;11.9;7.0;;;;;;;19.6;45.0;102640;;;;
2021/06/13 08:16:48;;;;;;;11.9;7.0;;;;;;;19.5;44.7;102640;;;;
2021/06/13 08:18:48;;;;;;;11.9;7.0;;;;;;;19.4;44.7;102640;;;;
2021/06/13 08:20:48;;;;;;;11.9;7.0;;;;;;;19.3;44.9;102640;;;;
2021/06/13 08:22:48;;;;;;;11.9;7.0;;;;;;;19.4;45.2;102630;;;;
2021/06/13 08:24:48;;;;;;;11.9;7.0;;;;;;;19.5;44.7;102630;;;;
2021/06/13 08:26:48;;;;;;;11.9;7.0;;;;;;;19.4;44.5;102630;;;;
2021/06/13 08:28:48;;;;;;;11.9;7.0;;;;;;;19.5;45.4;102630;;;;
2021/06/13 08:30:48;;;;;;;8.8;5.9;;;;;;;19.6;44.6;102630;;;;
2021/06/13 08:36:48;;;;;;;8.8;5.9;;;;;;;19.8;45.0;102640;;;;
2021/06/13 08:40:48;;;;;;;8.8;5.9;;;;;;;19.6;44.2;102640;;;;
2021/06/13 08:44:48;;;;;;;8.8;5.9;;;;;;;19.7;43.2;102650;;;;
2021/06/13 08:46:48;;;;;;;8.8;5.9;;;;;;;19.6;43.9;102650;;;;
2021/06/13 08:48:48;;;;;;;8.8;5.9;;;;;;;19.7;43.5;102650;;;;
2021/06/13 08:50:49;;;;;;;8.7;5.2;;;;;;;19.8;43.5;102650;;;;
2021/06/13 08:56:48;;;;;;;8.7;5.2;;;;;;;20.0;43.7;102640;;;;
2021/06/13 09:00:50;;;;;;;8.7;5.2;;;;;;;19.9;43.2;102640;;;;
2021/06/13 09:02:48;;;;;;;8.7;5.2;;;;;;;20.0;43.2;102640;;;;
2021/06/13 09:04:48;;;;;;;8.7;5.2;;;;;;;20.2;43.0;102640;;;;
2021/06/13 09:08:48;;;;;;;8.7;5.2;;;;;;;20.1;42.7;102640;;;;
2021/06/13 09:10:48;;;;;;;16.4;6.5;;;;;;;20.2;43.6;102640;;;;
2021/06/13 09:14:50;;;;;;;16.4;6.5;;;;;;;20.4;43.3;102630;;;;
2021/06/13 09:16:48;;;;;;;16.4;6.5;;;;;;;20.3;43.5;102640;;;;
2021/06/13 09:20:48;;;;;;;16.4;6.5;;;;;;;20.4;42.2;102640;;;;
2021/06/13 09:24:48;;;;;;;16.4;6.5;;;;;;;20.3;42.6;102650;;;;
2021/06/13 09:26:48;;;;;;;16.4;6.5;;;;;;;20.6;43.2;102640;;;;
2021/06/13 09:30:50;;;;;;;10.5;5.9;;;;;;;20.5;41.9;102640;;;;
2021/06/13 09:34:48;;;;;;;10.5;5.9;;;;;;;20.7;42.6;102640;;;;
2021/06/13 09:36:48;;;;;;;10.5;5.9;;;;;;;20.8;42.7;102640;;;;
2021/06/13 09:42:48;;;;;;;10.5;5.9;;;;;;;20.9;42.9;102640;;;;
2021/06/13 09:44:48;;;;;;;10.5;5.9;;;;;;;21.0;42.0;102640;;;;
2021/06/13 09:46:48;;;;;;;10.5;5.9;;;;;;;20.9;43.1;102640;;;;
2021/06/13 09:48:48;;;;;;;10.5;5.9;;;;;;;21.2;42.6;102640;;;;
2021/06/13 09:50:48;;;;;;;9.3;5.6;;;;;;;21.1;43.3;102640;;;;
2021/06/13 09:56:48;;;;;;;9.3;5.6;;;;;;;21.2;40.9;102640;;;;
2021/06/13 09:58:48;;;;;;;9.3;5.6;;;;;;;21.3;41.1;102640;;;;
2021/06/13 10:00:49;;;;;;;9.3;5.6;;;;;;;21.2;42.2;102640;;;;
2021/06/13 10:02:48;;;;;;;9.3;5.6;;;;;;;21.5;42.5;102640;;;;
2021/06/13 10:04:48;;;;;;;9.3;5.6;;;;;;;21.4;43.1;102640;;;;
2021/06/13 10:08:48;;;;;;;9.3;5.6;;;;;;;21.3;41.4;102640;;;;
2021/06/13 10:10:49;;;;;;;8.3;6.0;;;;;;;21.2;41.8;102630;;;;
2021/06/13 10:12:48;;;;;;;8.3;6.0;;;;;;;21.4;40.8;102630;;;;
2021/06/13 10:16:50;;;;;;;8.3;6.0;;;;;;;21.2;39.2;102630;;;;
2021/06/13 10:18:48;;;;;;;8.3;6.0;;;;;;;21.4;39.5;102640;;;;
2021/06/13 10:20:48;;;;;;;8.3;6.0;;;;;;;21.5;38.4;102640;;;;
2021/06/13 10:26:48;;;;;;;8.3;6.0;;;;;;;21.6;40.0;102620;;;;
2021/06/13 10:28:48;;;;;;;8.3;6.0;;;;;;;21.7;40.1;102620;;;;
2021/06/13 10:30:48;;;;;;;9.1;5.4;;;;;;;21.9;38.6;102620;;;;
2021/06/13 10:32:48;;;;;;;9.1;5.4;;;;;;;21.8;40.6;102620;;;;
2021/06/13 10:34:50;;;;;;;9.1;5.4;;;;;;;21.9;39.6;102620;;;;
2021/06/13 10:36:48;;;;;;;9.1;5.4;;;;;;;22.0;42.0;102620;;;;
2021/06/13 10:40:48;;;;;;;9.1;5.4;;;;;;;22.1;41.0;102620;;;;
2021/06/13 10:42:48;;;;;;;9.1;5.4;;;;;;;22.3;40.1;102610;;;;
2021/06/13 10:46:49;;;;;;;9.1;5.4;;;;;;;22.0;41.4;102620;;;;
2021/06/13 10:48:50;;;;;;;7.8;5.1;;;;;;;22.3;40.3;102610;;;;
2021/06/13 10:50:49;;;;;;;7.8;5.1;;;;;;;22.4;40.4;102610;;;;
2021/06/13 10:56:48;;;;;;;7.8;5.1;;;;;;;22.3;38.0;102610;;;;
2021/06/13 10:58:50;;;;;;;7.8;5.1;;;;;;;22.0;37.8;102610;;;;
2021/06/13 11:00:48;;;;;;;7.8;5.1;;;;;;;22.2;39.1;102610;;;;
2021/06/13 11:02:50;;;;;;;7.8;5.1;;;;;;;22.3;39.1;102610;;;;
2021/06/13 11:04:48;;;;;;;7.8;5.1;;;;;;;22.4;39.2;102610;;;;
2021/06/13 11:06:53;;;;;;;7.8;5.1;;;;;;;22.5;41.6;102610;;;;
2021/06/13 11:10:48;;;;;;;8.6;5.0;;;;;;;22.4;39.9;102610;;;;
2021/06/13 11:12:49;;;;;;;8.6;5.0;;;;;;;22.5;41.7;102610;;;;
2021/06/13 11:14:48;;;;;;;8.6;5.0;;;;;;;22.4;39.4;102610;;;;
2021/06/13 11:18:48;;;;;;;8.6;5.0;;;;;;;22.5;37.3;102600;;;;
2021/06/13 11:20:50;;;;;;;8.6;5.0;;;;;;;22.1;40.2;102600;;;;
2021/06/13 11:22:48;;;;;;;8.6;5.0;;;;;;;22.2;36.8;102590;;;;
2021/06/13 11:24:48;;;;;;;8.6;5.0;;;;;;;22.3;39.6;102600;;;;
2021/06/13 11:26:48;;;;;;;8.6;5.0;;;;;;;22.6;40.7;102590;;;;
2021/06/13 11:28:48;;;;;;;8.3;4.9;;;;;;;22.8;38.2;102590;;;;
2021/06/13 11:30:49;;;;;;;8.3;4.9;;;;;;;23.0;38.9;102590;;;;
2021/06/13 11:34:48;;;;;;;8.3;4.9;;;;;;;23.1;38.8;102590;;;;
2021/06/13 11:36:50;;;;;;;8.3;4.9;;;;;;;23.2;43.6;102590;;;;
2021/06/13 11:38:48;;;;;;;8.3;4.9;;;;;;;23.3;40.1;102590;;;;
2021/06/13 11:42:48;;;;;;;8.3;4.9;;;;;;;23.4;39.9;102590;;;;
2021/06/13 11:44:48;;;;;;;8.3;4.9;;;;;;;23.5;37.5;102580;;;;
2021/06/13 11:46:49;;;;;;;8.3;4.9;;;;;;;23.7;37.0;102590;;;;
2021/06/13 11:48:48;;;;;;;8.5;4.6;;;;;;;23.8;36.7;102580;;;;
2021/06/13 11:52:48;;;;;;;8.5;4.6;;;;;;;23.7;40.3;102580;;;;
2021/06/13 11:56:48;;;;;;;8.5;4.6;;;;;;;23.9;41.6;102580;;;;
2021/06/13 11:58:48;;;;;;;8.5;4.6;;;;;;;23.8;36.7;102580;;;;
2021/06/13 12:00:48;;;;;;;8.5;4.6;;;;;;;23.9;37.1;102570;;;;
2021/06/13 12:04:48;;;;;;;8.5;4.6;;;;;;;23.8;36.1;102560;;;;
2021/06/13 12:06:48;;;;;;;8.5;4.6;;;;;;;23.9;37.2;102560;;;;
2021/06/13 12:14:49;;;;;;;7.5;5.2;;;;;;;24.1;38.7;102560;;;;
2021/06/13 12:18:48;;;;;;;7.5;5.2;;;;;;;24.2;35.8;102550;;;;
2021/06/13 12:20:48;;;;;;;7.5;5.2;;;;;;;24.4;36.6;102550;;;;
2021/06/13 12:28:48;;;;;;;6.8;4.1;;;;;;;24.5;36.0;102550;;;;
2021/06/13 12:30:48;;;;;;;6.8;4.1;;;;;;;24.7;36.4;102550;;;;
2021/06/13 12:34:53;;;;;;;6.8;4.1;;;;;;;24.6;38.0;102550;;;;
2021/06/13 12:36:48;;;;;;;6.8;4.1;;;;;;;24.7;43.6;102550;;;;
2021/06/13 12:40:48;;;;;;;6.8;4.1;;;;;;;24.8;36.4;102550;;;;
2021/06/13 12:42:48;;;;;;;6.8;4.1;;;;;;;24.9;37.6;102540;;;;
2021/06/13 12:46:48;;;;;;;6.8;4.1;;;;;;;25.0;38.7;102540;;;;
2021/06/13 12:48:48;;;;;;;6.2;3.5;;;;;;;25.1;38.6;102530;;;;
2021/06/13 12:50:48;;;;;;;6.2;3.5;;;;;;;25.0;34.3;102530;;;;
2021/06/13 12:56:48;;;;;;;6.2;3.5;;;;;;;25.1;33.4;102530;;;;
2021/06/13 12:58:48;;;;;;;6.2;3.5;;;;;;;25.2;37.0;102520;;;;
2021/06/13 13:04:49;;;;;;;6.2;3.5;;;;;;;24.9;34.7;102520;;;;
2021/06/13 13:06:48;;;;;;;6.2;3.5;;;;;;;24.8;33.6;102520;;;;
2021/06/13 13:08:48;;;;;;;7.6;3.8;;;;;;;25.2;35.2;102520;;;;
2021/06/13 13:10:48;;;;;;;7.6;3.8;;;;;;;25.3;34.7;102510;;;;
2021/06/13 13:12:48;;;;;;;7.6;3.8;;;;;;;25.4;34.9;102510;;;;
2021/06/13 13:14:48;;;;;;;7.6;3.8;;;;;;;25.5;33.8;102510;;;;
2021/06/13 13:16:48;;;;;;;7.6;3.8;;;;;;;25.7;34.1;102510;;;;
2021/06/13 13:20:48;;;;;;;7.6;3.8;;;;;;;25.8;32.8;102510;;;;
2021/06/13 13:22:48;;;;;;;7.6;3.8;;;;;;;25.9;34.9;102510;;;;
2021/06/13 13:24:48;;;;;;;7.6;3.8;;;;;;;25.8;37.4;102500;;;;
2021/06/13 13:26:48;;;;;;;7.6;3.8;;;;;;;26.0;34.8;102500;;;;
2021/06/13 13:28:48;;;;;;;5.6;3.8;;;;;;;26.1;35.3;102500;;;;
2021/06/13 13:30:48;;;;;;;5.6;3.8;;;;;;;26.0;31.9;102500;;;;
2021/06/13 13:34:48;;;;;;;5.6;3.8;;;;;;;26.3;34.6;102500;;;;
2021/06/13 13:36:48;;;;;;;5.6;3.8;;;;;;;26.5;36.7;102490;;;;
2021/06/13 13:38:48;;;;;;;5.6;3.8;;;;;;;26.4;34.8;102490;;;;
2021/06/13 13:40:48;;;;;;;5.6;3.8;;;;;;;26.3;33.6;102490;;;;
2021/06/13 13:44:48;;;;;;;5.6;3.8;;;;;;;26.5;32.5;102480;;;;
2021/06/13 13:46:49;;;;;;;5.6;3.8;;;;;;;26.4;31.4;102480;;;;
2021/06/13 13:48:48;;;;;;;5.0;3.7;;;;;;;26.2;30.6;102480;;;;
2021/06/13 13:50:49;;;;;;;5.0;3.7;;;;;;;26.4;33.8;102480;;;;
2021/06/13 13:52:48;;;;;;;5.0;3.7;;;;;;;26.6;34.5;102480;;;;
2021/06/13 13:54:48;;;;;;;5.0;3.7;;;;;;;26.9;35.2;102470;;;;
2021/06/13 13:56:48;;;;;;;5.0;3.7;;;;;;;27.0;31.3;102460;;;;
2021/06/13 13:58:48;;;;;;;5.0;3.7;;;;;;;26.9;37.8;102460;;;;
2021/06/13 14:00:53;;;;;;;5.0;3.7;;;;;;;27.2;31.9;102460;;;;
2021/06/13 14:02:52;;;;;;;5.0;3.7;;;;;;;27.5;35.0;102470;;;;
2021/06/13 14:06:49;;;;;;;5.0;3.7;;;;;;;27.7;29.7;102470;;;;
2021/06/13 14:08:48;;;;;;;6.3;3.9;;;;;;;27.8;34.0;102460;;;;
2021/06/13 14:10:48;;;;;;;6.3;3.9;;;;;;;27.6;29.7;102460;;;;
2021/06/13 14:14:48;;;;;;;6.3;3.9;;;;;;;27.2;28.5;102450;;;;
2021/06/13 14:16:48;;;;;;;6.3;3.9;;;;;;;27.1;31.4;102460;;;;
2021/06/13 14:18:48;;;;;;;6.3;3.9;;;;;;;27.6;32.5;102450;;;;
2021/06/13 14:20:48;;;;;;;6.3;3.9;;;;;;;27.8;31.2;102450;;;;
2021/06/13 14:24:48;;;;;;;6.3;3.9;;;;;;;28.2;34.0;102450;;;;
2021/06/13 14:26:49;;;;;;;6.3;3.9;;;;;;;28.6;30.6;102450;;;;
2021/06/13 14:28:48;;;;;;;6.0;3.9;;;;;;;28.3;27.7;102450;;;;
2021/06/13 14:30:49;;;;;;;6.0;3.9;;;;;;;28.6;29.9;102450;;;;
2021/06/13 14:32:48;;;;;;;6.0;3.9;;;;;;;28.9;29.7;102450;;;;
2021/06/13 14:34:48;;;;;;;6.0;3.9;;;;;;;29.3;29.8;102440;;;;
2021/06/13 14:36:48;;;;;;;6.0;3.9;;;;;;;29.5;28.7;102440;;;;
2021/06/13 14:38:48;;;;;;;6.0;3.9;;;;;;;29.6;30.1;102440;;;;
2021/06/13 14:40:48;;;;;;;6.0;3.9;;;;;;;29.9;31.5;102440;;;;
2021/06/13 14:42:48;;;;;;;6.0;3.9;;;;;;;30.3;27.7;102440;;;;
2021/06/13 14:46:48;;;;;;;6.0;3.9;;;;;;;30.4;29.7;102440;;;;
2021/06/13 14:48:48;;;;;;;4.4;3.1;;;;;;;30.8;27.4;102430;;;;
2021/06/13 14:54:49;;;;;;;4.4;3.1;;;;;;;31.2;31.8;102420;;;;
2021/06/13 14:58:48;;;;;;;4.4;3.1;;;;;;;31.4;30.2;102420;;;;
2021/06/13 15:00:51;;;;;;;4.4;3.1;;;;;;;31.3;27.7;102420;;;;
2021/06/13 15:02:48;;;;;;;4.4;3.1;;;;;;;31.6;28.8;102420;;;;
2021/06/13 15:04:48;;;;;;;4.4;3.1;;;;;;;31.8;26.6;102420;;;;
2021/06/13 15:06:48;;;;;;;4.4;3.1;;;;;;;31.5;27.0;102420;;;;
2021/06/13 15:08:48;;;;;;;5.8;3.5;;;;;;;32.3;28.2;102420;;;;
2021/06/13 15:10:48;;;;;;;5.8;3.5;;;;;;;32.1;25.4;102420;;;;
2021/06/13 15:12:48;;;;;;;5.8;3.5;;;;;;;32.5;27.2;102410;;;;
2021/06/13 15:14:50;;;;;;;5.8;3.5;;;;;;;32.8;27.9;102410;;;;
2021/06/13 15:20:48;;;;;;;5.8;3.5;;;;;;;32.9;27.7;102400;;;;
2021/06/13 15:22:48;;;;;;;5.8;3.5;;;;;;;32.0;21.5;102410;;;;
2021/06/13 15:24:48;;;;;;;5.8;3.5;;;;;;;32.1;28.1;102400;;;;
2021/06/13 15:26:48;;;;;;;5.8;3.5;;;;;;;32.2;21.4;102400;;;;
2021/06/13 15:28:48;;;;;;;5.4;4.0;;;;;;;31.9;25.3;102400;;;;
2021/06/13 15:30:49;;;;;;;5.4;4.0;;;;;;;32.4;24.9;102390;;;;
2021/06/13 15:32:48;;;;;;;5.4;4.0;;;;;;;32.0;21.4;102390;;;;
2021/06/13 15:34:48;;;;;;;5.4;4.0;;;;;;;32.3;22.3;102390;;;;
2021/06/13 15:36:48;;;;;;;5.4;4.0;;;;;;;32.2;21.1;102390;;;;
2021/06/13 15:38:49;;;;;;;5.4;4.0;;;;;;;31.9;21.4;102390;;;;
2021/06/13 15:40:48;;;;;;;5.4;4.0;;;;;;;32.1;21.8;102390;;;;
2021/06/13 15:42:48;;;;;;;5.4;4.0;;;;;;;31.7;20.7;102390;;;;
2021/06/13 15:44:48;;;;;;;5.4;4.0;;;;;;;32.0;20.8;102390;;;;
2021/06/13 15:48:48;;;;;;;5.2;3.4;;;;;;;31.5;21.1;102380;;;;
2021/06/13 15:50:48;;;;;;;5.2;3.4;;;;;;;31.4;21.0;102390;;;;
2021/06/13 15:52:48;;;;;;;5.2;3.4;;;;;;;31.8;21.1;102380;;;;
2021/06/13 15:54:49;;;;;;;5.2;3.4;;;;;;;32.2;26.9;102380;;;;
2021/06/13 15:56:50;;;;;;;5.2;3.4;;;;;;;32.5;26.0;102370;;;;
2021/06/13 15:58:52;;;;;;;5.2;3.4;;;;;;;33.2;23.5;102380;;;;
2021/06/13 16:00:48;;;;;;;5.2;3.4;;;;;;;33.4;21.6;102370;;;;
2021/06/13 16:02:48;;;;;;;5.2;3.4;;;;;;;33.3;21.7;102370;;;;
2021/06/13 16:04:48;;;;;;;5.2;3.4;;;;;;;33.7;23.6;102370;;;;
2021/06/13 16:06:48;;;;;;;5.2;3.4;;;;;;;33.4;24.2;102370;;;;
2021/06/13 16:08:48;;;;;;;4.9;3.3;;;;;;;33.8;24.9;102370;;;;
2021/06/13 16:10:51;;;;;;;4.9;3.3;;;;;;;33.9;25.2;102370;;;;
2021/06/13 16:12:48;;;;;;;4.9;3.3;;;;;;;33.8;20.3;102360;;;;
2021/06/13 16:14:48;;;;;;;4.9;3.3;;;;;;;33.6;18.7;102360;;;;
2021/06/13 16:16:48;;;;;;;4.9;3.3;;;;;;;33.4;19.0;102360;;;;
2021/06/13 16:18:48;;;;;;;4.9;3.3;;;;;;;33.2;20.2;102360;;;;
2021/06/13 16:20:48;;;;;;;4.9;3.3;;;;;;;32.9;19.0;102360;;;;
2021/06/13 16:22:48;;;;;;;4.9;3.3;;;;;;;33.5;21.7;102350;;;;
2021/06/13 16:24:48;;;;;;;4.9;3.3;;;;;;;33.8;24.6;102360;;;;
2021/06/13 16:26:48;;;;;;;4.9;3.3;;;;;;;34.2;21.2;102360;;;;
2021/06/13 16:28:49;;;;;;;5.8;3.3;;;;;;;33.8;20.4;102350;;;;
2021/06/13 16:30:48;;;;;;;5.8;3.3;;;;;;;34.0;19.9;102360;;;;
2021/06/13 16:32:48;;;;;;;5.8;3.3;;;;;;;33.5;17.7;102350;;;;
2021/06/13 16:34:48;;;;;;;5.8;3.3;;;;;;;33.8;23.7;102350;;;;
2021/06/13 16:36:48;;;;;;;5.8;3.3;;;;;;;33.9;20.5;102350;;;;
2021/06/13 16:38:48;;;;;;;5.8;3.3;;;;;;;33.6;18.1;102350;;;;
2021/06/13 16:40:53;;;;;;;5.8;3.3;;;;;;;34.0;21.7;102350;;;;
2021/06/13 16:42:50;;;;;;;5.8;3.3;;;;;;;33.9;20.8;102350;;;;
2021/06/13 16:44:48;;;;;;;5.8;3.3;;;;;;;32.8;18.4;102340;;;;
2021/06/13 16:46:49;;;;;;;5.8;3.3;;;;;;;33.0;20.7;102350;;;;
2021/06/13 16:48:48;;;;;;;4.2;3.1;;;;;;;32.3;18.4;102340;;;;
2021/06/13 16:50:48;;;;;;;4.2;3.1;;;;;;;32.7;20.4;102340;;;;
2021/06/13 16:52:59;;;;;;;4.2;3.1;;;;;;;32.1;18.5;102350;;;;
2021/06/13 16:54:50;;;;;;;4.2;3.1;;;;;;;32.7;17.9;102350;;;;
2021/06/13 16:56:48;;;;;;;4.2;3.1;;;;;;;32.9;19.6;102350;;;;
2021/06/13 17:00:48;;;;;;;4.2;3.1;;;;;;;32.7;19.6;102340;;;;
2021/06/13 17:02:48;;;;;;;4.2;3.1;;;;;;;33.0;17.7;102340;;;;
2021/06/13 17:04:49;;;;;;;4.2;3.1;;;;;;;32.9;18.3;102340;;;;
2021/06/13 17:06:48;;;;;;;4.2;3.1;;;;;;;32.8;18.5;102340;;;;
2021/06/13 17:08:49;;;;;;;5.5;3.0;;;;;;;33.0;17.7;102340;;;;
2021/06/13 17:10:48;;;;;;;5.5;3.0;;;;;;;33.2;18.9;102350;;;;
2021/06/13 17:12:48;;;;;;;5.5;3.0;;;;;;;33.0;18.8;102340;;;;
2021/06/13 17:14:48;;;;;;;5.5;3.0;;;;;;;33.7;17.6;102340;;;;
2021/06/13 17:16:48;;;;;;;5.5;3.0;;;;;;;33.0;17.8;102340;;;;
2021/06/13 17:18:48;;;;;;;5.5;3.0;;;;;;;32.8;18.6;102340;;;;
2021/06/13 17:22:49;;;;;;;5.5;3.0;;;;;;;33.2;19.0;102330;;;;
2021/06/13 17:24:52;;;;;;;5.5;3.0;;;;;;;33.0;20.1;102330;;;;
2021/06/13 17:26:48;;;;;;;5.5;3.0;;;;;;;32.8;18.1;102330;;;;
2021/06/13 17:28:48;;;;;;;5.6;3.5;;;;;;;32.6;18.8;102330;;;;
2021/06/13 17:30:49;;;;;;;5.6;3.5;;;;;;;32.2;18.7;102320;;;;
2021/06/13 17:32:48;;;;;;;5.6;3.5;;;;;;;32.3;19.6;102320;;;;
2021/06/13 17:34:48;;;;;;;5.6;3.5;;;;;;;32.8;19.6;102320;;;;
2021/06/13 17:36:49;;;;;;;5.6;3.5;;;;;;;32.4;18.8;102320;;;;
2021/06/13 17:38:48;;;;;;;5.6;3.5;;;;;;;32.0;18.3;102320;;;;
2021/06/13 17:40:48;;;;;;;5.6;3.5;;;;;;;32.4;18.3;102330;;;;
2021/06/13 17:42:49;;;;;;;5.6;3.5;;;;;;;31.8;18.3;102330;;;;
2021/06/13 17:44:48;;;;;;;5.6;3.5;;;;;;;32.6;19.2;102320;;;;
2021/06/13 17:46:48;;;;;;;5.6;3.5;;;;;;;32.4;19.1;102320;;;;
2021/06/13 17:48:48;;;;;;;5.8;3.0;;;;;;;31.8;18.5;102320;;;;
2021/06/13 17:50:48;;;;;;;5.8;3.0;;;;;;;32.0;19.9;102320;;;;
2021/06/13 17:52:48;;;;;;;5.8;3.0;;;;;;;32.2;20.7;102320;;;;
2021/06/13 17:56:49;;;;;;;5.8;3.0;;;;;;;31.5;18.8;102320;;;;